Time;durP1;ratioP1;P1;durP2;ratioP2;P2;SDS_P1;SDS_P2;PMS_P1;PMS_P2;Temp;Humidity;BMP_temperature;BMP_pressure;BME280_temperature;BME280_humidity;BME280_pressure;Samples;Min_cycle;Max_cycle;Signal;HPM_P1;HPM_P2
2023/04/17 00:01:16;;;;;;;0.00;0.00;;;;;;;14.61;54.12;101837.44;7338670;19;20014;-59
2023/04/17 00:03:41;;;;;;;0.00;0.00;;;;;;;14.57;54.34;101841.03;7338599;19;20002;-59
2023/04/17 00:06:07;;;;;;;0.00;0.00;;;;;;;14.54;54.22;101835.84;7339022;19;20934;-60
2023/04/17 00:08:33;;;;;;;0.00;0.00;;;;;;;14.51;54.53;101846.44;7339988;19;20593;-58
2023/04/17 00:10:58;;;;;;;0.00;0.00;;;;;;;14.48;54.72;101841.22;7336614;19;20011;-59
2023/04/17 00:13:23;;;;;;;0.00;0.00;;;;;;;14.44;55.46;101844.78;7341248;19;20018;-60
2023/04/17 00:15:49;;;;;;;0.00;0.00;;;;;;;14.41;55.30;101847.47;7340963;19;20029;-59
2023/04/17 00:18:14;;;;;;;0.00;0.00;;;;;;;14.38;55.67;101850.16;7344078;19;20034;-59
2023/04/17 00:20:40;;;;;;;0.00;0.00;;;;;;;14.35;55.83;101844.97;7340130;19;20026;-59
2023/04/17 00:23:06;;;;;;;0.00;0.00;;;;;;;14.32;55.94;101842.41;7342854;19;20015;-59
2023/04/17 00:25:31;;;;;;;0.08;0.08;;;;;;;14.29;55.81;101845.94;7343802;19;20014;-58
2023/04/17 00:27:56;;;;;;;0.00;0.00;;;;;;;14.25;56.10;101846.94;7341832;19;20132;-59
2023/04/17 00:30:22;;;;;;;0.00;0.00;;;;;;;14.20;56.10;101849.63;7343307;19;20669;-59
2023/04/17 00:32:47;;;;;;;0.00;0.00;;;;;;;14.16;56.43;101844.47;7341495;19;20027;-59
2023/04/17 00:35:13;;;;;;;0.00;0.00;;;;;;;14.06;56.29;101833.28;7340482;19;20034;-59
2023/04/17 00:37:38;;;;;;;0.00;0.00;;;;;;;14.07;56.40;101840.25;7342384;19;20014;-59
2023/04/17 00:40:05;;;;;;;0.00;0.00;;;;;;;14.06;56.21;101842.91;7343773;19;20033;-58
2023/04/17 00:42:30;;;;;;;0.00;0.00;;;;;;;14.06;56.74;101849.03;7341844;19;20402;-59
2023/04/17 00:44:56;;;;;;;0.00;0.00;;;;;;;14.06;56.51;101849.03;7343865;19;20007;-59
2023/04/17 00:47:21;;;;;;;0.00;0.00;;;;;;;14.08;56.41;101855.09;7340661;19;20022;-59
2023/04/17 00:49:49;;;;;;;0.00;0.00;;;;;;;14.09;56.75;101848.97;7343994;19;20035;-59
2023/04/17 00:52:20;;;;;;;;;;;;;;;14.12;54.74;101853.28;7341780;19;20113;-59
2023/04/17 00:54:46;;;;;;;0.00;0.00;;;;;;;14.09;56.92;101845.47;7341313;19;19919;-59
2023/04/17 00:57:11;;;;;;;0.10;0.10;;;;;;;14.15;57.07;101850.63;7340426;19;20014;-59
2023/04/17 00:59:37;;;;;;;0.00;0.00;;;;;;;14.17;57.42;101851.44;7342034;19;20559;-59
2023/04/17 01:02:03;;;;;;;0.05;0.05;;;;;;;14.20;57.56;101847.00;7341884;19;20895;-59
2023/04/17 01:04:28;;;;;;;0.00;0.00;;;;;;;14.23;57.52;101857.44;7339228;19;20039;-59
2023/04/17 01:06:54;;;;;;;0.00;0.00;;;;;;;14.23;57.73;101857.44;7343590;19;20027;-58
2023/04/17 01:09:20;;;;;;;0.10;0.10;;;;;;;14.27;57.93;101869.63;7338247;19;20946;-58
2023/04/17 01:11:45;;;;;;;0.10;0.10;;;;;;;14.14;57.86;101844.50;7340966;19;20014;-59
2023/04/17 01:14:10;;;;;;;0.10;0.10;;;;;;;14.31;57.60;101864.31;7340298;19;20014;-59
2023/04/17 01:16:38;;;;;;;0.10;0.10;;;;;;;14.19;57.87;101845.28;7342007;19;20491;-58
2023/04/17 01:19:03;;;;;;;0.00;0.00;;;;;;;14.36;58.22;101872.97;7339554;19;20356;-59
2023/04/17 01:21:28;;;;;;;0.00;0.00;;;;;;;14.35;58.21;101866.00;7342834;19;20010;-59
2023/04/17 01:23:54;;;;;;;0.00;0.00;;;;;;;14.40;58.14;101869.41;7331044;19;21215;-59
2023/04/17 01:26:23;;;;;;;0.00;0.00;;;;;;;14.40;58.13;101864.16;7343285;19;20007;-59
2023/04/17 01:28:54;;;;;;;0.00;0.00;;;;;;;14.44;57.81;101865.78;7343484;19;20021;-59
2023/04/17 01:31:19;;;;;;;0.08;0.08;;;;;;;14.42;58.54;101868.47;7344225;19;20756;-58
2023/04/17 01:33:45;;;;;;;0.00;0.00;;;;;;;14.46;58.39;101867.50;7342688;19;20011;-59
2023/04/17 01:36:11;;;;;;;0.10;0.10;;;;;;;14.46;58.78;101864.03;7344406;19;20101;-59
2023/04/17 01:38:37;;;;;;;0.03;0.03;;;;;;;14.49;58.62;101870.09;7345641;19;20017;-59
2023/04/17 01:41:08;;;;;;;0.00;0.00;;;;;;;14.51;58.58;101872.72;7339201;19;20014;-58
2023/04/17 01:43:36;;;;;;;0.00;0.00;;;;;;;14.53;59.11;101860.38;7344207;19;20015;-59
2023/04/17 01:46:01;;;;;;;0.00;0.00;;;;;;;14.38;59.14;101839.66;7339654;19;20018;-60
2023/04/17 01:48:26;;;;;;;0.00;0.00;;;;;;;14.55;58.93;101869.13;7342820;19;20050;-59
2023/04/17 01:50:52;;;;;;;0.00;0.00;;;;;;;14.59;58.97;101870.78;7344325;19;20026;-59
2023/04/17 01:53:17;;;;;;;0.10;0.10;;;;;;;14.61;59.04;101874.25;7346077;19;20016;-59
2023/04/17 01:55:43;;;;;;;0.10;0.10;;;;;;;14.64;59.09;101874.16;7343402;19;20044;-59
2023/04/17 01:58:08;;;;;;;0.00;0.00;;;;;;;14.65;59.44;101875.94;7338042;19;20010;-59
2023/04/17 02:00:34;;;;;;;0.05;0.05;;;;;;;14.65;58.96;101875.94;7353259;19;20034;-59
2023/04/17 02:02:59;;;;;;;0.10;0.10;;;;;;;14.67;59.34;101878.50;7354592;19;20447;-60
2023/04/17 02:05:25;;;;;;;0.00;0.00;;;;;;;14.66;59.56;101871.53;7345951;19;20007;-59
2023/04/17 02:07:50;;;;;;;0.00;0.00;;;;;;;14.66;59.54;101871.53;7350582;19;20035;-59
2023/04/17 02:10:15;;;;;;;0.00;0.00;;;;;;;14.66;59.59;101877.66;7354623;19;20015;-59
2023/04/17 02:12:41;;;;;;;0.10;0.10;;;;;;;14.68;59.92;101874.97;7349163;19;20566;-59
2023/04/17 02:15:07;;;;;;;0.00;0.00;;;;;;;14.64;59.64;101871.53;7352595;19;20020;-59
2023/04/17 02:17:32;;;;;;;0.05;0.05;;;;;;;14.70;60.11;101874.06;7351488;19;20353;-59
2023/04/17 02:19:58;;;;;;;0.03;0.03;;;;;;;14.72;60.32;101876.66;7352636;19;20011;-58
2023/04/17 02:22:23;;;;;;;0.00;0.00;;;;;;;14.75;60.15;101876.56;7349503;19;20018;-58
2023/04/17 02:24:48;;;;;;;0.00;0.00;;;;;;;14.77;60.28;101878.28;7353589;19;20007;-60
2023/04/17 02:27:14;;;;;;;0.10;0.10;;;;;;;14.79;59.97;101881.75;7349631;19;20077;-59
2023/04/17 02:29:40;;;;;;;0.05;0.05;;;;;;;14.81;60.18;101886.97;7352872;19;20890;-60
2023/04/17 02:32:05;;;;;;;0.00;0.00;;;;;;;14.81;60.00;101892.25;7350956;19;20007;-59
2023/04/17 02:34:31;;;;;;;0.08;0.08;;;;;;;14.81;60.18;101886.97;7352993;19;20357;-59
2023/04/17 02:36:56;;;;;;;0.00;0.00;;;;;;;14.82;60.01;101893.09;7357506;19;20668;-59
2023/04/17 02:39:22;;;;;;;0.03;0.03;;;;;;;14.81;60.13;101886.13;7350382;19;20031;-59
2023/04/17 02:41:47;;;;;;;0.00;0.00;;;;;;;14.81;60.08;101886.13;7354439;19;20010;-59
2023/04/17 02:44:13;;;;;;;0.00;0.00;;;;;;;14.81;60.36;101888.75;7357075;19;21221;-60
2023/04/17 02:46:38;;;;;;;0.10;0.10;;;;;;;14.81;60.20;101896.63;7352747;19;20014;-60
2023/04/17 02:49:04;;;;;;;0.00;0.00;;;;;;;14.63;60.25;101861.94;7359818;19;20018;-59
2023/04/17 02:51:29;;;;;;;0.00;0.00;;;;;;;14.81;60.37;101891.38;7360308;19;20042;-60
2023/04/17 02:53:55;;;;;;;0.00;0.00;;;;;;;14.76;59.99;101892.34;7356122;19;20002;-60
2023/04/17 02:56:20;;;;;;;0.10;0.10;;;;;;;14.78;59.93;101890.53;7361089;19;20106;-60
2023/04/17 02:58:45;;;;;;;0.10;0.10;;;;;;;14.77;60.18;101890.56;7355542;19;20026;-59
2023/04/17 03:01:11;;;;;;;0.00;0.00;;;;;;;14.75;60.18;101887.97;7360474;19;20015;-60
2023/04/17 03:03:37;;;;;;;0.00;0.00;;;;;;;14.69;60.72;101889.84;7348546;19;20014;-59
2023/04/17 03:06:03;;;;;;;0.00;0.00;;;;;;;14.71;60.25;101896.81;7336181;19;20025;-59
2023/04/17 03:08:28;;;;;;;0.10;0.10;;;;;;;14.59;60.32;101870.78;7356196;19;20013;-59
2023/04/17 03:10:54;;;;;;;0.00;0.00;;;;;;;14.69;60.72;101892.47;7356863;19;20010;-58
2023/04/17 03:13:20;;;;;;;0.00;0.00;;;;;;;14.67;60.71;101895.16;7354802;19;20010;-60
2023/04/17 03:15:46;;;;;;;0.00;0.00;;;;;;;14.65;61.17;101891.69;7356296;19;20059;-59
2023/04/17 03:18:11;;;;;;;0.00;0.00;;;;;;;14.66;61.11;101896.06;7333907;19;20019;-59
2023/04/17 03:20:36;;;;;;;0.00;0.00;;;;;;;14.65;61.30;101896.97;7355084;19;20014;-59
2023/04/17 03:23:02;;;;;;;0.00;0.00;;;;;;;14.66;60.68;101898.69;7352798;19;20006;-59
2023/04/17 03:25:27;;;;;;;0.10;0.10;;;;;;;14.65;60.86;101904.84;7356412;19;20015;-59
2023/04/17 03:27:53;;;;;;;0.03;0.03;;;;;;;14.65;61.04;101893.44;7355826;19;20742;-59
2023/04/17 03:30:18;;;;;;;0.10;0.10;;;;;;;14.64;61.52;101900.47;7358008;19;20034;-59
2023/04/17 03:32:43;;;;;;;0.00;0.00;;;;;;;14.64;61.40;101900.47;7354719;19;20086;-58
2023/04/17 03:35:09;;;;;;;0.00;0.00;;;;;;;14.64;60.99;101902.22;7356323;19;20021;-60
2023/04/17 03:37:34;;;;;;;0.10;0.10;;;;;;;14.65;61.13;101912.72;7354613;19;20082;-59
2023/04/17 03:40:00;;;;;;;0.10;0.10;;;;;;;14.64;61.22;101900.47;7350997;19;20014;-59
2023/04/17 03:42:26;;;;;;;0.00;0.00;;;;;;;14.58;61.26;101883.97;7356311;19;20007;-60
2023/04/17 03:44:51;;;;;;;0.10;0.10;;;;;;;14.62;61.25;101897.00;7353244;19;20043;-59
2023/04/17 03:47:17;;;;;;;0.00;0.00;;;;;;;14.65;61.73;101896.97;7355823;19;20018;-59
2023/04/17 03:49:42;;;;;;;0.00;0.00;;;;;;;14.66;61.39;101901.31;7356837;19;20010;-59
2023/04/17 03:52:08;;;;;;;0.10;0.10;;;;;;;14.67;61.52;101905.66;7355096;19;20060;-59
2023/04/17 03:54:34;;;;;;;0.00;0.00;;;;;;;14.64;61.59;101895.19;7355434;19;20014;-59
2023/04/17 03:57:00;;;;;;;0.03;0.03;;;;;;;14.67;61.55;101903.03;7354984;19;20026;-60
2023/04/17 03:59:26;;;;;;;0.00;0.00;;;;;;;14.67;61.56;101900.41;7352149;19;20029;-60
2023/04/17 04:01:52;;;;;;;0.00;0.00;;;;;;;14.67;61.67;101878.50;7348543;19;20861;-60
2023/04/17 04:04:18;;;;;;;0.00;0.00;;;;;;;14.65;61.55;101891.69;7353206;19;20014;-58
2023/04/17 04:06:46;;;;;;;0.03;0.03;;;;;;;14.63;61.78;101900.50;7355283;19;20367;-59
2023/04/17 04:09:11;;;;;;;0.10;0.10;;;;;;;14.66;61.79;101905.72;7357240;19;20034;-60
2023/04/17 04:11:36;;;;;;;0.00;0.00;;;;;;;14.65;62.07;101907.47;7355412;19;20534;-59
2023/04/17 04:14:02;;;;;;;0.00;0.00;;;;;;;14.64;61.66;101895.19;7354825;19;20015;-59
2023/04/17 04:16:27;;;;;;;0.00;0.00;;;;;;;14.65;61.67;101904.84;7359437;19;20018;-59
2023/04/17 04:18:53;;;;;;;0.00;0.00;;;;;;;14.66;61.54;101908.34;7350807;19;20011;-58
2023/04/17 04:21:18;;;;;;;0.10;0.10;;;;;;;14.65;61.67;101896.97;7351298;19;20343;-59
2023/04/17 04:23:44;;;;;;;0.10;0.10;;;;;;;14.65;61.63;101917.09;7355534;19;20109;-60
2023/04/17 04:26:10;;;;;;;0.10;0.10;;;;;;;14.63;61.54;101914.50;7357075;19;20007;-58
2023/04/17 04:28:37;;;;;;;0.10;0.10;;;;;;;14.63;61.96;101917.13;7353199;19;20014;-60
2023/04/17 04:31:03;;;;;;;0.10;0.10;;;;;;;14.62;61.83;101917.19;7354750;19;22139;-59
2023/04/17 04:33:29;;;;;;;0.10;0.10;;;;;;;14.52;61.86;101900.72;7352834;19;20046;-59
2023/04/17 04:36:00;;;;;;;0.10;0.10;;;;;;;14.57;61.53;101909.38;7352812;19;21508;-59
2023/04/17 04:38:29;;;;;;;0.10;0.10;;;;;;;14.58;61.73;101907.63;7352287;19;20022;-60
2023/04/17 04:41:00;;;;;;;0.00;0.00;;;;;;;14.55;62.22;101905.94;7352740;19;20899;-59
2023/04/17 04:43:27;;;;;;;0.00;0.00;;;;;;;14.56;62.24;101907.66;7349292;19;20019;-59
2023/04/17 04:45:53;;;;;;;;;;;;;;;14.59;59.64;101912.84;7356392;19;21515;-60
2023/04/17 04:48:18;;;;;;;0.00;0.00;;;;;;;14.55;61.62;101903.31;7353666;19;19923;-59
2023/04/17 04:50:43;;;;;;;0.00;0.00;;;;;;;14.41;61.89;101887.75;7355768;19;21028;-58
2023/04/17 04:53:09;;;;;;;0.10;0.10;;;;;;;14.51;61.83;101912.13;7353978;19;20014;-59
2023/04/17 04:55:34;;;;;;;0.08;0.08;;;;;;;14.52;62.22;101921.75;7356362;19;20842;-58
2023/04/17 04:58:00;;;;;;;0.00;0.00;;;;;;;14.51;62.20;101925.28;7351637;19;20014;-59
2023/04/17 05:00:25;;;;;;;0.00;0.00;;;;;;;14.49;62.15;101916.53;7354736;19;20029;-59
2023/04/17 05:02:50;;;;;;;0.10;0.10;;;;;;;14.48;62.58;101922.69;7348645;19;20381;-59
2023/04/17 05:05:16;;;;;;;0.00;0.00;;;;;;;14.48;61.92;101925.31;7355134;19;20011;-59
2023/04/17 05:07:41;;;;;;;0.10;0.10;;;;;;;14.10;62.33;101855.09;7354483;19;20010;-60
2023/04/17 05:10:07;;;;;;;0.00;0.00;;;;;;;14.44;62.08;101913.09;7355082;19;20252;-59
2023/04/17 05:12:33;;;;;;;0.08;0.08;;;;;;;14.46;62.32;101922.69;7353190;19;20526;-60
2023/04/17 05:14:59;;;;;;;0.00;0.00;;;;;;;14.45;62.46;101920.13;7352587;19;20364;-59
2023/04/17 05:17:24;;;;;;;0.00;0.00;;;;;;;14.44;62.26;101928.88;7353614;19;20011;-59
2023/04/17 05:19:50;;;;;;;0.00;0.00;;;;;;;14.43;62.32;101927.16;7354115;19;20018;-59
2023/04/17 05:22:15;;;;;;;0.10;0.10;;;;;;;14.42;62.40;101931.53;7348511;19;20007;-59
2023/04/17 05:24:41;;;;;;;0.10;0.10;;;;;;;14.31;62.70;101922.13;7354445;19;20006;-59
2023/04/17 05:27:06;;;;;;;0.10;0.10;;;;;;;14.41;62.43;101929.81;7352622;19;20003;-59
2023/04/17 05:29:32;;;;;;;0.10;0.10;;;;;;;14.42;62.46;101933.31;7354132;19;20011;-59
2023/04/17 05:31:57;;;;;;;0.10;0.10;;;;;;;14.42;62.73;101930.69;7351650;19;20013;-59
2023/04/17 05:34:23;;;;;;;0.10;0.10;;;;;;;14.40;62.38;101937.72;7351284;19;20039;-59
2023/04/17 05:36:48;;;;;;;0.00;0.00;;;;;;;14.42;62.66;101942.06;7352834;19;20045;-59
2023/04/17 05:39:14;;;;;;;0.00;0.00;;;;;;;14.41;62.82;101928.94;7353991;19;20002;-59
2023/04/17 05:41:39;;;;;;;0.00;0.00;;;;;;;14.36;62.71;101925.53;7355002;19;20090;-59
2023/04/17 05:44:06;;;;;;;0.10;0.10;;;;;;;14.40;62.98;101932.47;7349440;19;20010;-59
2023/04/17 05:46:31;;;;;;;0.10;0.10;;;;;;;14.16;62.78;101910.16;7352916;19;20018;-59
2023/04/17 05:48:57;;;;;;;0.00;0.00;;;;;;;14.40;62.74;101953.50;7345317;19;20010;-59
2023/04/17 05:51:22;;;;;;;0.00;0.00;;;;;;;14.27;63.05;101927.44;7355156;19;20018;-59
2023/04/17 05:53:48;;;;;;;0.00;0.00;;;;;;;14.39;63.09;101949.13;7352277;19;20056;-59
2023/04/17 05:56:13;;;;;;;0.10;0.10;;;;;;;14.41;62.81;101942.94;7353352;19;20026;-59
2023/04/17 05:58:39;;;;;;;0.00;0.00;;;;;;;14.42;62.97;101951.69;7342505;19;20011;-59
2023/04/17 06:01:05;;;;;;;0.00;0.00;;;;;;;14.40;63.39;101943.00;7352208;19;20015;-59
2023/04/17 06:03:33;;;;;;;0.00;0.00;;;;;;;14.46;63.18;101942.88;7349547;19;20039;-59
2023/04/17 06:05:59;;;;;;;0.00;0.00;;;;;;;14.44;63.45;101939.38;7353151;19;20087;-59
2023/04/17 06:08:25;;;;;;;0.00;0.00;;;;;;;14.45;63.41;101956.91;7352245;19;20041;-59
2023/04/17 06:10:51;;;;;;;0.00;0.00;;;;;;;14.47;63.11;101949.84;7351892;19;20007;-59
2023/04/17 06:13:17;;;;;;;0.00;0.00;;;;;;;14.36;62.74;101925.53;7359275;19;20325;-59
2023/04/17 06:15:42;;;;;;;0.10;0.10;;;;;;;14.44;63.01;101949.91;7359907;19;20011;-59
2023/04/17 06:18:08;;;;;;;0.03;0.03;;;;;;;14.49;63.36;101945.44;7356009;19;20073;-58
2023/04/17 06:20:34;;;;;;;0.10;0.10;;;;;;;14.49;63.42;101954.19;7358544;19;20002;-58
2023/04/17 06:23:00;;;;;;;0.05;0.05;;;;;;;14.51;63.42;101956.81;7358402;19;20037;-59
2023/04/17 06:25:26;;;;;;;0.08;0.08;;;;;;;14.51;63.50;101956.81;7359918;19;20018;-59
2023/04/17 06:27:51;;;;;;;0.10;0.10;;;;;;;14.51;63.48;101962.94;7355094;19;20786;-59
2023/04/17 06:30:17;;;;;;;0.00;0.00;;;;;;;14.41;63.07;101939.47;7354431;19;20015;-59
2023/04/17 06:32:42;;;;;;;0.10;0.10;;;;;;;14.54;63.06;101977.78;7359592;19;21367;-59
2023/04/17 06:35:11;;;;;;;0.00;0.00;;;;;;;14.58;62.84;101961.06;7355359;19;20003;-59
2023/04/17 06:37:36;;;;;;;0.10;0.10;;;;;;;14.58;63.54;101968.94;7360636;19;20019;-59
2023/04/17 06:40:02;;;;;;;0.10;0.10;;;;;;;14.59;63.33;101964.53;7353246;19;20583;-59
2023/04/17 06:42:28;;;;;;;0.10;0.10;;;;;;;14.61;63.54;101973.28;7332068;19;20025;-59
2023/04/17 06:44:54;;;;;;;0.08;0.08;;;;;;;14.63;63.15;101972.34;7329202;19;20056;-59
2023/04/17 06:47:20;;;;;;;0.00;0.00;;;;;;;14.66;63.52;101981.97;7345739;19;20006;-64
2023/04/17 06:49:45;;;;;;;0.10;0.10;;;;;;;14.69;63.13;102001.16;7347100;19;20035;-65
2023/04/17 06:52:10;;;;;;;0.00;0.00;;;;;;;14.70;63.07;101984.50;7337393;19;20022;-64
2023/04/17 06:54:37;;;;;;;0.10;0.10;;;;;;;14.66;63.04;101993.34;7345211;19;20379;-64
2023/04/17 06:57:05;;;;;;;0.00;0.00;;;;;;;14.77;63.21;102007.13;7346783;19;20885;-64
2023/04/17 06:59:30;;;;;;;0.10;0.10;;;;;;;14.78;63.18;101993.09;7327383;19;20018;-64
2023/04/17 07:01:56;;;;;;;0.00;0.00;;;;;;;14.78;63.42;102002.75;7337158;19;20597;-64
2023/04/17 07:04:22;;;;;;;0.10;0.10;;;;;;;14.78;63.37;101995.72;7339591;19;20043;-64
2023/04/17 07:06:47;;;;;;;0.00;0.00;;;;;;;14.81;63.45;101996.56;7343230;19;20077;-64
2023/04/17 07:09:13;;;;;;;0.00;0.00;;;;;;;14.82;63.15;102004.41;7345814;19;20021;-64
2023/04/17 07:11:38;;;;;;;0.10;0.10;;;;;;;14.83;63.21;101995.63;7349609;19;20458;-64
2023/04/17 07:14:04;;;;;;;0.10;0.10;;;;;;;14.85;63.57;101999.13;7337753;19;20029;-64
2023/04/17 07:16:30;;;;;;;0.00;0.00;;;;;;;14.86;63.09;102003.47;7342719;19;20090;-64
2023/04/17 07:18:55;;;;;;;0.10;0.10;;;;;;;14.86;63.22;102003.47;7340936;19;20051;-64
2023/04/17 07:21:20;;;;;;;0.10;0.10;;;;;;;14.91;63.35;102008.66;7339309;19;20121;-64
2023/04/17 07:23:46;;;;;;;0.08;0.08;;;;;;;14.94;63.49;102008.56;7337977;19;20018;-64
2023/04/17 07:26:11;;;;;;;0.00;0.00;;;;;;;14.95;63.54;102010.28;7341888;19;20014;-64
2023/04/17 07:28:38;;;;;;;0.10;0.10;;;;;;;14.97;63.44;102013.78;7341407;19;20133;-64
2023/04/17 07:31:07;;;;;;;0.10;0.10;;;;;;;14.99;63.39;102009.34;7347837;19;20101;-64
2023/04/17 07:33:34;;;;;;;0.10;0.10;;;;;;;15.02;63.56;102007.53;7346681;19;20850;-64
2023/04/17 07:36:00;;;;;;;0.00;0.00;;;;;;;15.07;63.58;102014.47;7342045;19;20015;-64
2023/04/17 07:38:26;;;;;;;0.00;0.00;;;;;;;15.07;63.50;102015.31;7347753;19;20026;-64
2023/04/17 07:40:51;;;;;;;0.00;0.00;;;;;;;15.07;63.88;102015.31;7347507;19;20010;-64
2023/04/17 07:43:17;;;;;;;0.03;0.03;;;;;;;15.16;63.87;102025.66;7342063;19;20640;-64
2023/04/17 07:45:42;;;;;;;0.10;0.10;;;;;;;15.21;63.82;102018.53;7340970;19;20022;-65
2023/04/17 07:48:08;;;;;;;0.00;0.00;;;;;;;15.27;63.75;102028.94;7346298;19;20011;-64
2023/04/17 07:50:33;;;;;;;0.10;0.10;;;;;;;15.30;63.60;102028.84;7345498;19;20748;-64
2023/04/17 07:52:59;;;;;;;0.03;0.03;;;;;;;15.39;63.81;102033.06;7343421;19;20075;-64
2023/04/17 07:55:24;;;;;;;0.10;0.10;;;;;;;15.45;63.65;102032.91;7329918;19;20580;-64
2023/04/17 07:57:50;;;;;;;0.10;0.10;;;;;;;15.51;63.69;102029.28;7339579;19;20022;-64
2023/04/17 08:00:16;;;;;;;0.00;0.00;;;;;;;15.51;63.68;102016.13;7341668;19;21031;-65
2023/04/17 08:02:42;;;;;;;0.10;0.10;;;;;;;15.68;63.69;102029.81;7341462;19;20015;-64
2023/04/17 08:05:08;;;;;;;0.10;0.10;;;;;;;15.77;63.22;102034.03;7337884;19;20011;-64
2023/04/17 08:07:34;;;;;;;0.00;0.00;;;;;;;15.85;63.57;102031.19;7337865;19;20018;-64
2023/04/17 08:09:59;;;;;;;0.10;0.10;;;;;;;15.94;63.22;102031.00;7337495;19;20877;-64
2023/04/17 08:12:25;;;;;;;0.03;0.03;;;;;;;16.02;63.49;102034.31;7338149;19;20015;-64
2023/04/17 08:14:50;;;;;;;0.10;0.10;;;;;;;16.06;63.03;102022.78;7336116;19;20005;-64
2023/04/17 08:17:19;;;;;;;0.10;0.10;;;;;;;16.21;62.97;102039.97;7339656;19;20650;-64
2023/04/17 08:19:44;;;;;;;0.00;0.00;;;;;;;16.29;62.97;102033.63;7338706;19;20031;-64
2023/04/17 08:22:10;;;;;;;0.10;0.10;;;;;;;16.37;63.20;102045.72;7339749;19;20022;-64
2023/04/17 08:24:36;;;;;;;0.00;0.00;;;;;;;16.48;63.00;102041.06;7335736;19;20074;-64
2023/04/17 08:27:02;;;;;;;0.10;0.10;;;;;;;16.56;63.23;102041.72;7338087;19;20018;-65
2023/04/17 08:29:27;;;;;;;0.08;0.08;;;;;;;16.65;62.73;102045.91;7336523;19;20810;-64
2023/04/17 08:31:53;;;;;;;0.00;0.00;;;;;;;16.74;63.19;102045.69;7336029;19;20014;-63
2023/04/17 08:34:18;;;;;;;0.00;0.00;;;;;;;16.83;62.90;102043.69;7336795;19;20670;-64
2023/04/17 08:36:45;;;;;;;0.10;0.10;;;;;;;16.94;62.73;102047.78;7344793;19;20014;-64
2023/04/17 08:39:10;;;;;;;0.03;0.03;;;;;;;17.04;62.59;102041.34;7344030;19;20109;-64
2023/04/17 08:41:48;;;;;;;0.10;0.10;;;;;;;17.21;62.17;102046.13;7342730;19;20937;-64
2023/04/17 08:44:16;;;;;;;;;;;;;;;17.39;61.23;102050.91;7339438;19;21050;-64
2023/04/17 08:46:42;;;;;;;0.08;0.08;;;;;;;17.46;62.46;102046.28;7345399;19;19923;-64
2023/04/17 08:49:07;;;;;;;0.00;0.00;;;;;;;17.62;62.50;102043.13;7346046;19;21036;-64
2023/04/17 08:51:34;;;;;;;0.10;0.10;;;;;;;17.84;62.07;102047.75;7346043;19;20031;-64
2023/04/17 08:53:59;;;;;;;0.00;0.00;;;;;;;18.07;62.26;102050.56;7346491;19;20006;-64
2023/04/17 08:56:27;;;;;;;0.10;0.10;;;;;;;18.30;61.77;102063.03;7344172;19;20821;-64
2023/04/17 08:58:52;;;;;;;0.00;0.00;;;;;;;18.55;61.72;102062.19;7345255;19;20015;-64
2023/04/17 09:01:19;;;;;;;0.10;0.10;;;;;;;18.77;61.53;102057.91;7346062;19;20630;-64
2023/04/17 09:03:47;;;;;;;0.00;0.00;;;;;;;19.05;60.72;102059.56;7347821;19;20872;-64
2023/04/17 09:06:14;;;;;;;0.00;0.00;;;;;;;19.13;60.58;102033.69;7339614;19;20016;-64
2023/04/17 09:08:53;;;;;;;0.03;0.03;;;;;;;19.61;60.65;102061.91;7341462;19;20026;-64
2023/04/17 09:11:19;;;;;;;0.10;0.10;;;;;;;19.82;60.03;102071.69;7340565;19;20014;-64
2023/04/17 09:13:44;;;;;;;0.10;0.10;;;;;;;20.08;59.54;102069.78;7340834;19;20017;-67
2023/04/17 09:16:12;;;;;;;0.10;0.10;;;;;;;20.36;59.26;102069.47;7339818;19;20921;-64
2023/04/17 09:18:38;;;;;;;;;;;;;;;20.78;59.41;102068.59;7338617;19;20011;-64
2023/04/17 09:21:04;;;;;;;0.10;0.10;;;;;;;20.93;58.37;102063.50;7339231;19;19918;-64
2023/04/17 09:23:45;;;;;;;0.10;0.10;;;;;;;21.36;58.53;102066.91;7337509;19;20010;-64
2023/04/17 09:26:19;;;;;;;0.10;0.10;;;;;;;21.65;58.43;102070.00;7335405;19;20013;-64
2023/04/17 09:29:09;;;;;;;0.10;0.10;;;;;;;22.10;58.03;102074.00;7339654;19;20043;-64
2023/04/17 09:31:37;;;;;;;0.10;0.10;;;;;;;22.15;56.36;102058.72;7236018;19;2004600;-64
2023/04/17 09:34:06;;;;;;;0.10;0.10;;;;;;;22.50;56.29;102078.22;7334546;19;20143;-64
2023/04/17 09:36:37;;;;;;;0.10;0.10;;;;;;;22.66;56.05;102068.53;7341039;19;20015;-65
2023/04/17 09:39:19;;;;;;;0.10;0.10;;;;;;;22.99;56.64;102071.25;7342172;19;20050;-64
2023/04/17 09:41:45;;;;;;;0.10;0.10;;;;;;;23.14;55.82;102068.72;7346428;19;21037;-64
2023/04/17 09:44:22;;;;;;;0.10;0.10;;;;;;;23.47;55.04;102079.34;7342465;19;20597;-62
2023/04/17 09:46:48;;;;;;;0.10;0.10;;;;;;;23.79;54.42;102075.78;7346142;19;20070;-64
2023/04/17 09:49:17;;;;;;;0.10;0.10;;;;;;;24.17;54.24;102082.53;7344702;19;21357;-64
2023/04/17 09:51:44;;;;;;;0.10;0.10;;;;;;;24.56;54.05;102090.06;7344894;19;20007;-64
2023/04/17 09:54:10;;;;;;;;;;;;;;;25.18;56.17;102081.88;7344843;19;21014;-63
2023/04/17 09:56:36;;;;;;;0.10;0.10;;;;;;;25.26;52.10;102085.78;7345361;19;19923;-64
2023/04/17 09:59:04;;;;;;;0.10;0.10;;;;;;;25.58;51.41;102086.41;7345068;19;20446;-64
2023/04/17 10:01:31;;;;;;;0.10;0.10;;;;;;;25.72;50.57;102066.81;7340993;19;20019;-64
2023/04/17 10:03:57;;;;;;;0.10;0.10;;;;;;;26.04;49.98;102078.09;7344856;19;20010;-64
2023/04/17 10:06:23;;;;;;;0.10;0.10;;;;;;;26.25;48.79;102080.31;7342764;19;20070;-64
2023/04/17 10:08:49;;;;;;;0.00;0.00;;;;;;;26.38;47.67;102084.75;7344000;19;20035;-64
2023/04/17 10:11:15;;;;;;;0.00;0.00;;;;;;;26.53;47.70;102084.72;7336108;19;20850;-64
2023/04/17 10:13:46;;;;;;;0.00;0.00;;;;;;;26.76;48.27;102080.44;7335538;19;20022;-64
2023/04/17 10:16:11;;;;;;;0.10;0.10;;;;;;;26.87;46.43;102091.28;7336793;19;20600;-64
2023/04/17 10:18:37;;;;;;;0.08;0.08;;;;;;;27.05;46.81;102087.31;7338314;19;20034;-64
2023/04/17 10:21:20;;;;;;;0.00;0.00;;;;;;;27.47;48.45;102093.28;7337161;19;20599;-64
2023/04/17 10:23:46;;;;;;;0.05;0.05;;;;;;;27.44;41.95;102088.16;7335800;19;20043;-64
2023/04/17 10:26:24;;;;;;;0.05;0.05;;;;;;;27.61;45.38;102101.19;7336479;19;20018;-64
2023/04/17 10:28:51;;;;;;;0.00;0.00;;;;;;;27.47;41.00;102098.66;7337641;19;20883;-64
2023/04/17 10:31:18;;;;;;;0.10;0.10;;;;;;;27.37;41.42;102100.28;7332174;19;20121;-63
2023/04/17 10:33:56;;;;;;;0.05;0.05;;;;;;;27.21;42.39;102086.25;7337423;19;20054;-63
2023/04/17 10:36:47;;;;;;;0.00;0.00;;;;;;;27.09;43.49;102106.75;7335468;19;20875;-64
2023/04/17 10:39:14;;;;;;;0.10;0.10;;;;;;;26.69;40.30;102105.94;7233383;19;2004389;-63
2023/04/17 10:42:19;;;;;;;0.10;0.10;;;;;;;26.41;44.17;102113.16;7341071;19;20019;-63
2023/04/17 10:44:45;;;;;;;0.10;0.10;;;;;;;25.96;41.13;102111.72;7235255;19;2004530;-63
2023/04/17 10:47:14;;;;;;;0.00;0.00;;;;;;;25.62;42.01;102108.50;7341462;19;20022;-63
2023/04/17 10:49:50;;;;;;;0.00;0.00;;;;;;;25.38;43.51;102124.25;7343889;19;20013;-63
2023/04/17 10:52:30;;;;;;;0.10;0.10;;;;;;;25.13;43.71;102113.38;7342266;19;20015;-63
2023/04/17 10:55:07;;;;;;;0.08;0.08;;;;;;;24.95;43.53;102124.22;7342960;19;20015;-63
2023/04/17 10:57:51;;;;;;;0.00;0.00;;;;;;;24.74;44.16;102122.84;7349505;19;20481;-63
2023/04/17 11:00:18;;;;;;;0.10;0.10;;;;;;;24.47;43.85;102122.66;7348026;19;20014;-63
2023/04/17 11:02:49;;;;;;;0.10;0.10;;;;;;;24.34;43.64;102128.69;7346101;19;20021;-63
2023/04/17 11:05:17;;;;;;;0.10;0.10;;;;;;;24.17;43.49;102120.78;7347828;19;20007;-63
2023/04/17 11:07:43;;;;;;;0.10;0.10;;;;;;;24.04;43.81;102120.63;7347339;19;20011;-63
2023/04/17 11:10:09;;;;;;;0.03;0.03;;;;;;;23.88;44.27;102122.44;7345615;19;20010;-63
2023/04/17 11:12:35;;;;;;;0.10;0.10;;;;;;;23.72;44.83;102118.88;7346252;19;20010;-63
2023/04/17 11:15:05;;;;;;;0.10;0.10;;;;;;;23.62;44.83;102113.19;7342519;19;20023;-63
2023/04/17 11:17:30;;;;;;;0.10;0.10;;;;;;;23.49;45.36;102113.00;7340535;19;20021;-63
2023/04/17 11:19:56;;;;;;;0.00;0.00;;;;;;;23.44;45.85;102115.03;7342462;19;20042;-63
2023/04/17 11:22:22;;;;;;;0.10;0.10;;;;;;;23.43;47.15;102108.00;7338027;19;20050;-63
2023/04/17 11:24:52;;;;;;;0.08;0.08;;;;;;;23.51;45.94;102110.22;7341656;19;22453;-64